Time;durP1;ratioP1;P1;durP2;ratioP2;P2;SDS_P1;SDS_P2;PMS_P1;PMS_P2;Temp;Humidity;BMP_temperature;BMP_pressure;BME280_temperature;BME280_humidity;BME280_pressure;Samples;Min_cycle;Max_cycle;Signal;HPM_P1;HPM_P2
2022/07/08 00:03:37;;;;;;;4.90;3.97;;;;;;;15.94;83.69;99626.41;8383915;28;20509;-74
2022/07/08 00:07:38;;;;;;;4.30;3.90;;;;;;;15.93;83.91;99624.81;8427900;28;20047;-73
2022/07/08 00:11:41;;;;;;;5.85;4.03;;;;;;;15.91;83.89;99627.09;8389902;28;20059;-74
2022/07/08 00:15:41;;;;;;;5.10;4.60;;;;;;;15.88;84.11;99627.72;8343910;28;20056;-74
2022/07/08 00:19:42;;;;;;;8.80;4.97;;;;;;;15.84;84.28;99632.25;8386916;28;20163;-74
2022/07/08 00:23:43;;;;;;;7.43;4.25;;;;;;;15.82;84.54;99634.50;8391053;28;20589;-74
2022/07/08 00:27:44;;;;;;;6.28;4.82;;;;;;;15.82;84.55;99629.03;8389857;28;20045;-75
2022/07/08 00:31:45;;;;;;;6.85;4.28;;;;;;;15.77;85.03;99631.97;8388578;28;20048;-74
2022/07/08 00:35:46;;;;;;;8.20;4.90;;;;;;;15.75;85.26;99645.94;8390211;28;20044;-74
2022/07/08 00:39:47;;;;;;;8.48;5.18;;;;;;;15.75;85.48;99634.25;8389787;28;20055;-75
2022/07/08 00:43:49;;;;;;;5.78;5.10;;;;;;;15.77;85.35;99637.41;8426403;28;20044;-74
2022/07/08 00:47:49;;;;;;;6.80;4.88;;;;;;;15.77;85.64;99638.22;8422043;28;20047;-74
2022/07/08 00:51:51;;;;;;;6.30;5.68;;;;;;;15.75;85.89;99639.69;8365260;28;20052;-74
2022/07/08 00:55:52;;;;;;;6.47;5.40;;;;;;;15.76;85.93;99635.81;8422781;28;20036;-74
2022/07/08 00:59:54;;;;;;;6.10;5.45;;;;;;;15.76;86.00;99641.25;8424018;28;20052;-74
2022/07/08 01:03:55;;;;;;;7.13;5.40;;;;;;;15.71;86.26;99644.16;8409527;28;20123;-74
2022/07/08 01:07:56;;;;;;;9.05;5.60;;;;;;;15.71;86.34;99650.41;8424962;28;20036;-74
2022/07/08 01:11:57;;;;;;;8.77;6.10;;;;;;;15.70;86.50;99653.50;8406842;28;20131;-74
2022/07/08 01:15:58;;;;;;;6.75;5.68;;;;;;;15.65;86.91;99650.97;8374829;28;20059;-74
2022/07/08 01:19:59;;;;;;;7.07;5.53;;;;;;;15.65;87.13;99656.41;8426591;28;20040;-75
2022/07/08 01:24:00;;;;;;;9.05;6.68;;;;;;;15.66;87.44;99660.69;8417819;28;20474;-74
2022/07/08 01:28:01;;;;;;;7.00;6.30;;;;;;;15.67;87.60;99665.03;8421277;28;20040;-74
2022/07/08 01:32:02;;;;;;;9.05;6.60;;;;;;;15.71;87.76;99665.94;8366786;28;20044;-75
2022/07/08 01:36:04;;;;;;;7.97;6.80;;;;;;;15.74;87.83;99665.31;8417389;28;20450;-74
2022/07/08 01:40:05;;;;;;;10.02;7.75;;;;;;;15.74;88.13;99666.13;8422683;28;20135;-74
2022/07/08 01:44:07;;;;;;;11.20;7.18;;;;;;;15.79;89.24;99670.56;8424906;28;20048;-74
2022/07/08 01:48:08;;;;;;;9.43;8.43;;;;;;;15.81;89.19;99665.59;8388419;28;20052;-74
2022/07/08 01:52:09;;;;;;;10.38;7.25;;;;;;;15.84;89.29;99670.38;8416836;28;20189;-75
2022/07/08 01:56:10;;;;;;;9.77;7.00;;;;;;;15.83;89.92;99679.66;8427158;28;20055;-74
2022/07/08 02:00:11;;;;;;;10.43;7.68;;;;;;;15.83;90.38;99674.22;8373098;28;20144;-74
2022/07/08 02:04:12;;;;;;;11.35;7.78;;;;;;;15.85;90.33;99682.88;8428156;28;20044;-74
2022/07/08 02:08:13;;;;;;;10.98;7.80;;;;;;;15.89;90.37;99683.81;8425308;28;20040;-74
2022/07/08 02:12:20;;;;;;;9.45;7.38;;;;;;;15.91;90.22;99687.00;8392292;28;20074;-74
2022/07/08 02:16:21;;;;;;;9.27;7.32;;;;;;;15.92;90.52;99688.59;8367731;28;20052;-74
2022/07/08 02:20:22;;;;;;;11.45;8.45;;;;;;;15.92;90.94;99699.47;8413642;28;20041;-75
2022/07/08 02:24:23;;;;;;;8.55;7.60;;;;;;;15.88;91.53;99693.09;8427851;28;20036;-74
2022/07/08 02:28:25;;;;;;;11.73;8.45;;;;;;;15.87;91.64;99705.13;8408146;28;20055;-74
2022/07/08 02:32:25;;;;;;;9.65;8.30;;;;;;;15.89;91.39;99711.03;8397996;28;20052;-74
2022/07/08 02:36:27;;;;;;;11.30;8.52;;;;;;;15.89;91.45;99711.03;8373411;28;20729;-74
2022/07/08 02:40:28;;;;;;;10.88;8.63;;;;;;;15.91;91.84;99708.81;8407882;28;20062;-75
2022/07/08 02:44:29;;;;;;;12.73;8.52;;;;;;;15.91;91.88;99708.81;8403807;28;20036;-73
2022/07/08 02:48:30;;;;;;;11.77;8.60;;;;;;;15.89;92.32;99719.22;8406256;28;20076;-75
2022/07/08 02:52:31;;;;;;;10.35;8.63;;;;;;;15.87;92.69;99719.53;8412165;28;20044;-75
2022/07/08 02:56:33;;;;;;;11.30;8.88;;;;;;;15.91;92.59;99719.69;8411693;28;20087;-74
2022/07/08 03:00:34;;;;;;;9.88;8.45;;;;;;;15.90;92.68;99729.00;8415721;28;20052;-74
2022/07/08 03:04:35;;;;;;;12.48;9.27;;;;;;;15.90;93.03;99729.00;8416308;28;20131;-74
2022/07/08 03:08:36;;;;;;;12.75;8.90;;;;;;;15.88;93.77;99736.69;8414367;28;20519;-75
2022/07/08 03:12:36;;;;;;;12.88;9.57;;;;;;;15.89;93.42;99733.63;8355503;28;20118;-74
2022/07/08 03:16:38;;;;;;;11.93;9.00;;;;;;;15.91;93.33;99741.50;8409276;28;20086;-75
2022/07/08 03:20:38;;;;;;;10.98;9.13;;;;;;;15.94;93.07;99735.38;8408754;28;20048;-75
2022/07/08 03:24:39;;;;;;;10.05;8.73;;;;;;;15.96;93.31;99738.56;8411741;28;20431;-75
2022/07/08 03:28:40;;;;;;;14.48;9.90;;;;;;;15.98;93.51;99744.47;8404747;28;20124;-74
2022/07/08 03:32:41;;;;;;;10.38;9.30;;;;;;;15.98;94.07;99752.66;8397917;28;20048;-73
2022/07/08 03:36:42;;;;;;;9.90;8.90;;;;;;;15.94;94.03;99762.59;8428366;28;20502;-73
2022/07/08 03:45:03;;;;;;;13.95;10.63;;;;;;;15.91;95.28;99774.16;8426808;28;20043;-74
2022/07/08 03:49:04;;;;;;;13.20;10.23;;;;;;;15.88;95.15;99780.25;8424500;28;20055;-73
2022/07/08 03:53:05;;;;;;;12.93;9.88;;;;;;;15.89;95.14;99776.41;8388648;28;20040;-73
2022/07/08 03:57:06;;;;;;;14.95;9.30;;;;;;;15.91;95.51;99785.06;8423945;28;20040;-73
2022/07/08 04:01:07;;;;;;;11.65;9.40;;;;;;;15.88;95.50;99786.50;8428721;28;20036;-73
2022/07/08 04:05:08;;;;;;;13.32;9.23;;;;;;;15.86;95.56;99793.41;8425964;28;20499;-74
2022/07/08 04:09:09;;;;;;;11.98;8.50;;;;;;;15.90;95.35;99799.81;8375725;28;20048;-74
2022/07/08 04:13:10;;;;;;;11.02;8.68;;;;;;;15.91;95.18;99791.31;8401532;28;20055;-72
2022/07/08 04:17:14;;;;;;;12.43;8.20;;;;;;;15.91;94.76;99801.41;8421732;28;20040;-74
2022/07/08 04:21:15;;;;;;;10.68;7.70;;;;;;;15.87;94.74;99812.13;8425716;28;20134;-73
2022/07/08 04:25:16;;;;;;;12.13;7.50;;;;;;;15.91;94.54;99812.31;8371332;28;20506;-73
2022/07/08 04:29:17;;;;;;;9.48;7.47;;;;;;;15.92;94.09;99819.31;8406506;28;20150;-74
2022/07/08 04:33:18;;;;;;;8.68;6.75;;;;;;;15.91;93.84;99829.44;8424963;28;20055;-74
2022/07/08 04:37:19;;;;;;;9.05;6.97;;;;;;;15.92;93.42;99835.66;8415528;28;20461;-73
2022/07/08 04:41:20;;;;;;;8.57;6.20;;;;;;;15.94;93.52;99836.16;8411580;28;20056;-75
2022/07/08 04:45:21;;;;;;;10.95;7.03;;;;;;;15.99;93.42;99833.25;8426610;28;20040;-74
2022/07/08 04:49:24;;;;;;;10.07;7.05;;;;;;;16.01;93.49;99828.28;8425868;28;20056;-74
2022/07/08 04:53:25;;;;;;;8.25;6.50;;;;;;;16.02;93.29;99835.34;8411010;28;20040;-73
2022/07/08 04:57:26;;;;;;;8.73;6.30;;;;;;;16.06;92.99;99841.72;8385727;28;20070;-75
2022/07/08 05:01:28;;;;;;;8.13;5.88;;;;;;;16.17;92.36;99845.69;8414454;28;20097;-73
2022/07/08 05:05:30;;;;;;;7.22;5.97;;;;;;;16.22;92.06;99859.13;8424534;28;20087;-74
2022/07/08 05:09:31;;;;;;;9.38;6.28;;;;;;;16.27;91.74;99853.50;8422797;28;20044;-73
2022/07/08 05:13:31;;;;;;;10.07;5.85;;;;;;;16.31;91.48;99865.31;8420313;28;20054;-73
2022/07/08 05:17:33;;;;;;;9.75;5.68;;;;;;;16.37;91.34;99869.47;8416191;28;20044;-73
2022/07/08 05:21:36;;;;;;;10.45;6.20;;;;;;;16.40;91.04;99868.81;8426641;28;20040;-73
2022/07/08 05:25:37;;;;;;;8.80;5.15;;;;;;;16.55;90.35;99872.88;8418831;28;20063;-73
2022/07/08 05:29:37;;;;;;;12.50;5.85;;;;;;;16.77;89.13;99877.28;8394508;28;20040;-75
2022/07/08 05:33:39;;;;;;;8.95;5.78;;;;;;;16.85;88.40;99879.97;8434262;28;20165;-73
2022/07/08 05:37:42;;;;;;;13.68;6.38;;;;;;;16.93;87.55;99870.13;8369471;28;20389;-73
2022/07/08 05:41:44;;;;;;;9.13;5.95;;;;;;;17.04;86.71;99876.78;8433056;28;20449;-73
2022/07/08 05:45:44;;;;;;;13.55;5.68;;;;;;;17.30;85.33;99885.56;8430311;28;20047;-74
2022/07/08 05:49:46;;;;;;;13.73;6.10;;;;;;;17.38;84.27;99883.09;8431326;28;20052;-73
2022/07/08 05:53:52;;;;;;;10.02;5.53;;;;;;;17.42;83.80;99889.47;8429700;28;20419;-74
2022/07/08 05:57:53;;;;;;;8.82;5.22;;;;;;;17.24;84.47;99897.81;8382385;28;20503;-73
2022/07/08 06:01:54;;;;;;;15.57;6.28;;;;;;;17.17;84.94;99913.94;8430843;28;20127;-75
2022/07/08 06:05:55;;;;;;;10.95;5.78;;;;;;;17.13;85.37;99907.53;8432442;28;20044;-74
2022/07/08 06:09:56;;;;;;;14.43;6.32;;;;;;;17.35;84.79;99908.31;8432456;28;20162;-73
2022/07/08 06:13:57;;;;;;;15.80;6.28;;;;;;;17.44;84.43;99917.25;8431961;28;20062;-73
2022/07/08 06:17:58;;;;;;;20.42;6.10;;;;;;;17.44;84.55;99917.25;8371645;28;20105;-74
2022/07/08 06:21:59;;;;;;;16.02;6.40;;;;;;;17.50;83.98;99921.38;8422265;28;20085;-72
2022/07/08 06:26:00;;;;;;;15.88;6.15;;;;;;;17.51;83.53;99922.97;8411995;28;20512;-73
2022/07/08 06:30:02;;;;;;;17.00;6.75;;;;;;;17.58;83.34;99923.22;8427468;28;20051;-74
2022/07/08 06:34:02;;;;;;;16.50;5.93;;;;;;;17.56;82.81;99925.47;8417015;28;20458;-73
2022/07/08 06:38:04;;;;;;;20.58;7.20;;;;;;;17.47;83.23;99932.97;8375481;28;20036;-73
2022/07/08 06:42:05;;;;;;;18.88;5.78;;;;;;;17.63;82.77;99936.69;8427260;28;20071;-74
2022/07/08 06:46:09;;;;;;;20.30;5.63;;;;;;;17.75;82.00;99939.50;8398036;28;20044;-75
2022/07/08 06:50:10;;;;;;;20.60;5.82;;;;;;;17.76;81.33;99941.09;8430992;28;20457;-76
2022/07/08 06:58:31;;;;;;;22.17;6.35;;;;;;;17.52;82.50;99943.69;8430658;28;20404;-76
2022/07/08 07:02:32;;;;;;;19.65;5.60;;;;;;;17.55;82.70;99945.75;8427845;28;20044;-76
2022/07/08 07:06:33;;;;;;;15.23;5.30;;;;;;;17.71;82.74;99950.28;8410552;28;20044;-76
2022/07/08 07:10:36;;;;;;;20.23;5.57;;;;;;;17.61;82.41;99956.16;8429491;28;20040;-76
2022/07/08 07:14:36;;;;;;;23.63;5.90;;;;;;;17.69;82.65;99952.56;8426811;28;20044;-75
2022/07/08 07:18:37;;;;;;;18.63;4.88;;;;;;;17.89;81.79;99956.38;8424258;28;20040;-76
2022/07/08 07:22:38;;;;;;;19.77;5.00;;;;;;;18.00;80.44;99952.09;8422958;28;20555;-75
2022/07/08 07:26:39;;;;;;;19.45;4.18;;;;;;;17.99;79.58;99966.88;8428154;28;20040;-75
2022/07/08 07:30:40;;;;;;;11.18;4.22;;;;;;;18.07;79.47;99963.28;8393829;28;20082;-75
2022/07/08 07:34:41;;;;;;;15.02;3.83;;;;;;;18.07;79.20;99974.22;8425433;28;20499;-75
2022/07/08 07:38:42;;;;;;;17.60;4.00;;;;;;;18.15;78.93;99962.38;8371100;28;20046;-76
2022/07/08 07:42:44;;;;;;;16.02;3.85;;;;;;;18.29;78.26;99969.47;8375252;28;20048;-77
2022/07/08 07:46:44;;;;;;;18.33;4.43;;;;;;;18.09;78.88;99966.47;8392643;28;20047;-76
2022/07/08 07:50:46;;;;;;;17.85;3.78;;;;;;;17.82;80.08;99977.97;8370697;28;20507;-76
2022/07/08 07:54:47;;;;;;;14.90;3.50;;;;;;;17.80;80.29;99974.78;8419530;28;20108;-75
2022/07/08 07:58:48;;;;;;;18.42;3.88;;;;;;;18.07;79.01;99968.75;8427181;28;20040;-75
2022/07/08 08:02:51;;;;;;;16.98;3.65;;;;;;;18.56;78.20;99969.66;8368218;28;20151;-76
2022/07/08 08:06:53;;;;;;;12.45;3.08;;;;;;;18.81;75.66;99975.94;8340651;28;20048;-76
2022/07/08 08:10:54;;;;;;;15.52;3.50;;;;;;;18.83;75.82;99968.19;8367937;28;20052;-77
2022/07/08 08:14:57;;;;;;;16.52;3.72;;;;;;;18.74;75.34;99975.72;8427963;28;20036;-75
2022/07/08 08:18:58;;;;;;;10.65;2.80;;;;;;;18.57;74.98;99967.72;8391796;28;20071;-76
2022/07/08 08:22:59;;;;;;;12.98;2.28;;;;;;;18.69;74.86;99978.69;8422738;28;20113;-76
2022/07/08 08:27:00;;;;;;;12.95;2.53;;;;;;;18.86;73.62;99972.97;8419762;28;20135;-76
2022/07/08 08:31:02;;;;;;;14.65;2.63;;;;;;;18.88;74.17;99981.63;8403983;28;20070;-75
2022/07/08 08:35:03;;;;;;;18.35;3.35;;;;;;;18.81;74.39;99986.91;8414913;28;20044;-75
2022/07/08 08:39:04;;;;;;;14.05;2.60;;;;;;;19.02;74.01;99992.25;8426376;28;20048;-75
2022/07/08 08:43:08;;;;;;;15.63;3.63;;;;;;;19.49;72.31;100000.75;8422716;28;20047;-75
2022/07/08 08:47:11;;;;;;;19.02;4.40;;;;;;;19.25;72.56;99996.09;8419507;28;20561;-76
2022/07/08 08:51:14;;;;;;;13.43;3.80;;;;;;;18.92;73.69;100004.47;8406477;28;20052;-75
2022/07/08 08:55:30;;;;;;;16.42;3.33;;;;;;;19.17;73.73;99993.47;8426728;28;20400;-77
2022/07/08 08:59:33;;;;;;;9.57;2.83;;;;;;;19.46;71.75;99995.97;8409201;28;20054;-76
2022/07/08 09:03:35;;;;;;;16.50;3.40;;;;;;;19.58;70.96;100004.16;8385775;28;20048;-75
2022/07/08 09:07:36;;;;;;;10.30;3.20;;;;;;;19.66;69.63;100000.50;8426517;28;20119;-77
2022/07/08 09:11:39;;;;;;;12.13;3.13;;;;;;;19.77;69.59;100007.06;8426590;28;20487;-75
2022/07/08 09:15:43;;;;;;;15.25;3.85;;;;;;;19.68;68.53;100002.88;8426177;28;20048;-76
2022/07/08 09:19:48;;;;;;;14.15;3.38;;;;;;;19.76;68.79;100000.00;8416104;28;20048;-79
2022/07/08 09:23:49;;;;;;;8.07;2.70;;;;;;;19.53;70.04;100007.13;8425984;28;20047;-76
2022/07/08 09:27:50;;;;;;;12.70;3.17;;;;;;;19.13;70.43;100011.75;8426523;28;20569;-75
2022/07/08 09:32:08;;;;;;;18.50;3.92;;;;;;;18.90;71.93;100009.47;8388241;28;20203;-75
2022/07/08 09:36:10;;;;;;;11.85;2.78;;;;;;;19.05;71.39;100012.66;8407862;28;20051;-77
2022/07/08 09:40:17;;;;;;;7.90;1.90;;;;;;;19.17;69.33;100015.38;8426104;28;20055;-78
2022/07/08 09:44:38;;;;;;;12.70;2.30;;;;;;;19.49;69.34;100008.97;8354776;28;20063;-75
2022/07/08 09:48:39;;;;;;;10.95;2.10;;;;;;;20.17;67.49;99992.50;8354906;28;20433;-75
2022/07/08 09:52:40;;;;;;;7.68;2.50;;;;;;;20.72;66.17;99986.13;8329228;28;20176;-76
2022/07/08 09:56:41;;;;;;;9.80;2.60;;;;;;;20.90;64.39;99986.53;8320421;28;20057;-76
2022/07/08 10:00:43;;;;;;;12.55;2.53;;;;;;;20.84;64.63;99982.47;8355880;28;20052;-76
2022/07/08 10:04:44;;;;;;;10.15;2.17;;;;;;;20.44;64.88;100010.91;8354469;28;20041;-76
2022/07/08 10:08:45;;;;;;;8.23;2.03;;;;;;;20.06;65.92;100013.34;8335776;28;20053;-76
2022/07/08 10:12:46;;;;;;;8.63;2.08;;;;;;;20.62;65.12;100001.16;8301850;28;20057;-76
2022/07/08 10:16:48;;;;;;;9.10;2.08;;;;;;;20.38;63.58;100015.03;8424414;28;20044;-75
2022/07/08 10:20:54;;;;;;;10.98;2.08;;;;;;;20.18;65.19;100016.03;8409925;28;20047;-75
2022/07/08 10:24:58;;;;;;;9.15;2.17;;;;;;;20.15;64.43;100027.69;8430989;28;20067;-76
2022/07/08 10:29:08;;;;;;;9.07;1.95;;;;;;;20.60;62.92;100025.44;8426740;28;20093;-75
2022/07/08 10:33:10;;;;;;;8.63;1.70;;;;;;;20.72;62.10;100012.78;8430873;28;20051;-76
2022/07/08 10:37:11;;;;;;;9.95;2.08;;;;;;;21.12;61.54;100016.09;8431086;28;20392;-76
2022/07/08 10:41:26;;;;;;;6.57;1.70;;;;;;;20.56;60.28;100032.78;8386737;28;20097;-76
2022/07/08 10:45:27;;;;;;;6.15;1.77;;;;;;;20.08;61.72;100027.50;8430438;28;20499;-76
2022/07/08 10:49:43;;;;;;;5.78;1.77;;;;;;;19.86;62.97;100014.34;8430483;28;20521;-76
2022/07/08 10:53:47;;;;;;;7.93;1.95;;;;;;;20.44;63.51;100002.66;8407986;28;20048;-76
2022/07/08 10:57:58;;;;;;;7.97;1.85;;;;;;;21.02;62.66;100006.47;8429847;28;20097;-76
2022/07/08 11:02:13;;;;;;;10.07;2.00;;;;;;;21.03;59.16;100008.06;8430353;28;20483;-75
2022/07/08 11:06:34;;;;;;;5.13;1.20;;;;;;;20.97;60.08;100023.22;8420346;28;20513;-76
2022/07/08 11:10:36;;;;;;;5.18;1.60;;;;;;;20.99;59.86;100017.38;8409341;28;20139;-76
2022/07/08 11:14:46;;;;;;;5.63;1.55;;;;;;;20.49;58.94;100032.59;8357166;28;20048;-75
2022/07/08 11:18:49;;;;;;;4.72;1.33;;;;;;;19.79;59.18;100042.34;8386663;28;20511;-75
2022/07/08 11:22:53;;;;;;;2.67;1.17;;;;;;;20.45;58.40;100037.19;8336893;28;20052;-75
2022/07/08 11:26:55;;;;;;;5.88;1.40;;;;;;;20.60;57.43;100030.13;8365508;28;20052;-75
2022/07/08 11:30:57;;;;;;;3.70;1.42;;;;;;;20.54;56.29;100035.06;8428475;28;20040;-76
2022/07/08 11:34:59;;;;;;;5.28;1.30;;;;;;;21.07;54.14;100019.13;8372833;28;20129;-75
2022/07/08 11:39:04;;;;;;;4.13;0.85;;;;;;;21.37;49.49;100012.00;8371515;28;20040;-75
2022/07/08 11:43:06;;;;;;;1.42;0.52;;;;;;;21.51;49.41;100018.97;8417954;28;20052;-76
2022/07/08 11:47:15;;;;;;;2.47;0.85;;;;;;;21.81;49.47;100025.50;8351477;28;20055;-75
2022/07/08 11:51:17;;;;;;;3.83;0.93;;;;;;;22.01;49.22;100007.88;8361380;28;20494;-76
2022/07/08 11:55:18;;;;;;;2.33;1.00;;;;;;;22.27;49.91;100018.97;8384759;28;21443;-76
2022/07/08 11:59:25;;;;;;;8.00;1.20;;;;;;;22.56;49.54;100011.25;8384492;28;20075;-76
2022/07/08 12:03:28;;;;;;;4.82;1.05;;;;;;;22.65;48.44;99998.03;8392492;28;20060;-76
2022/07/08 12:07:29;;;;;;;2.72;1.08;;;;;;;22.55;47.99;100009.66;8371579;28;20459;-77
2022/07/08 12:11:39;;;;;;;2.78;0.98;;;;;;;22.45;47.71;100005.56;8391979;28;20048;-75
2022/07/08 12:15:40;;;;;;;5.32;1.45;;;;;;;22.22;48.82;99997.28;8388923;28;20062;-77
2022/07/08 12:19:43;;;;;;;5.03;1.00;;;;;;;22.05;49.69;100003.22;8386680;28;20047;-75
2022/07/08 12:23:54;;;;;;;2.03;0.73;;;;;;;22.13;48.86;99999.47;8384435;28;20139;-75
2022/07/08 12:27:56;;;;;;;6.72;1.30;;;;;;;22.53;50.43;99984.44;8347607;28;20056;-76
2022/07/08 12:31:57;;;;;;;2.88;1.05;;;;;;;22.95;47.84;99985.16;8383366;28;20532;-75
2022/07/08 12:35:59;;;;;;;3.63;1.20;;;;;;;23.11;51.07;99974.78;8390226;28;20052;-77
2022/07/08 12:40:19;;;;;;;3.25;1.10;;;;;;;23.06;48.66;99969.59;8377790;28;20060;-76
2022/07/08 12:44:36;;;;;;;3.35;1.00;;;;;;;23.15;48.20;99972.91;8391474;28;20127;-75
2022/07/08 12:48:37;;;;;;;2.85;1.02;;;;;;;23.32;46.60;99976.28;8366742;28;20126;-76
2022/07/08 12:52:38;;;;;;;2.65;1.00;;;;;;;23.25;47.21;99970.66;8374598;28;20143;-75
2022/07/08 12:56:39;;;;;;;3.92;0.90;;;;;;;23.36;47.31;99977.13;8389872;28;20503;-75
2022/07/08 13:00:40;;;;;;;6.78;1.02;;;;;;;23.38;46.82;99980.28;8419577;28;20528;-75
2022/07/08 13:04:41;;;;;;;6.55;0.98;;;;;;;23.52;46.63;99980.50;8417801;28;20110;-75
2022/07/08 13:08:43;;;;;;;5.22;0.98;;;;;;;23.27;45.23;99968.31;8421317;28;20572;-76
2022/07/08 13:12:46;;;;;;;5.40;0.80;;;;;;;23.19;45.68;99966.63;8424207;28;20086;-76
2022/07/08 13:16:51;;;;;;;6.95;1.10;;;;;;;22.80;46.02;99966.84;8426516;28;20079;-75
2022/07/08 13:20:52;;;;;;;4.03;1.35;;;;;;;22.48;49.01;99968.22;8417800;28;20070;-76
2022/07/08 13:24:54;;;;;;;8.23;1.20;;;;;;;22.05;48.66;99975.72;8390531;28;20047;-75
2022/07/08 13:28:56;;;;;;;11.45;1.35;;;;;;;21.73;50.63;99985.28;8425843;28;20063;-75
2022/07/08 13:32:58;;;;;;;4.43;1.38;;;;;;;21.69;51.71;99981.66;8419857;28;20056;-75
2022/07/08 13:37:02;;;;;;;5.90;1.25;;;;;;;21.88;51.70;99981.66;8370879;28;20410;-76
2022/07/08 13:41:05;;;;;;;3.92;1.23;;;;;;;22.22;51.14;99975.25;8368728;28;20079;-75
2022/07/08 13:45:06;;;;;;;5.85;1.75;;;;;;;22.54;50.31;99980.53;8361913;28;20467;-75
2022/07/08 13:49:08;;;;;;;6.43;1.30;;;;;;;23.10;48.43;99953.94;8254955;28;20054;-75
2022/07/08 13:53:09;;;;;;;6.82;1.60;;;;;;;23.28;47.64;99969.91;8278595;28;20137;-74
2022/07/08 13:57:10;;;;;;;6.13;1.75;;;;;;;23.26;48.04;99966.75;8311211;28;20453;-75
2022/07/08 14:01:13;;;;;;;6.35;1.52;;;;;;;23.17;49.20;99959.53;8306877;28;20108;-76
2022/07/08 14:05:17;;;;;;;6.20;1.58;;;;;;;22.97;47.94;99955.31;8295427;28;20057;-76
2022/07/08 14:09:18;;;;;;;5.95;1.45;;;;;;;22.60;49.00;99962.53;8287514;28;20186;-75
2022/07/08 14:13:19;;;;;;;2.95;0.98;;;;;;;22.29;49.29;99958.88;8303150;28;20049;-75
2022/07/08 14:17:20;;;;;;;5.10;1.20;;;;;;;21.95;49.54;99959.81;8310061;28;20052;-75
2022/07/08 14:21:22;;;;;;;6.25;1.38;;;;;;;21.57;50.91;99954.31;8420167;28;20496;-77
2022/07/08 14:25:23;;;;;;;6.45;1.67;;;;;;;21.41;52.15;99957.91;8420912;28;20052;-75
2022/07/08 14:29:24;;;;;;;5.95;1.70;;;;;;;21.25;53.14;99950.91;8426329;28;20046;-75
2022/07/08 14:33:25;;;;;;;5.78;1.40;;;;;;;21.24;53.58;99963.84;8406452;28;20052;-76
2022/07/08 14:37:27;;;;;;;4.88;1.40;;;;;;;21.24;51.85;99952.84;8418033;28;20041;-75
2022/07/08 14:41:28;;;;;;;4.97;1.13;;;;;;;21.45;51.61;99947.81;8425129;28;20047;-75
2022/07/08 14:45:30;;;;;;;5.57;1.50;;;;;;;21.70;51.34;99942.00;8413898;28;20131;-76
2022/07/08 14:49:31;;;;;;;5.70;1.60;;;;;;;21.77;51.49;99958.66;8404580;28;20105;-76
2022/07/08 14:53:32;;;;;;;6.85;1.27;;;;;;;21.69;51.48;99954.16;8424498;28;20055;-75
2022/07/08 14:57:34;;;;;;;6.95;1.38;;;;;;;21.75;52.05;99950.75;8423646;28;20052;-75
2022/07/08 15:01:35;;;;;;;4.95;1.52;;;;;;;21.72;51.64;99956.19;8378431;28;20040;-76
2022/07/08 15:05:37;;;;;;;8.40;1.55;;;;;;;21.82;51.08;99961.09;8422874;28;20445;-76
2022/07/08 15:09:38;;;;;;;7.55;1.55;;;;;;;23.05;47.74;99962.50;8415824;28;20050;-76
2022/07/08 15:13:39;;;;;;;6.80;1.55;;;;;;;23.55;45.61;99963.22;8380213;28;20048;-75
2022/07/08 15:17:41;;;;;;;5.60;1.67;;;;;;;25.09;43.61;99980.94;8419280;28;20040;-76
2022/07/08 15:21:43;;;;;;;7.75;1.50;;;;;;;25.91;40.92;99979.41;8381842;28;20048;-76
2022/07/08 15:25:47;;;;;;;7.68;1.60;;;;;;;25.51;41.10;99967.34;8419824;28;20036;-77
2022/07/08 15:29:50;;;;;;;5.97;1.42;;;;;;;23.81;43.81;99976.13;8393493;28;20097;-77
2022/07/08 15:33:52;;;;;;;9.90;1.65;;;;;;;22.86;47.22;99981.88;8372013;28;20071;-77
2022/07/08 15:37:57;;;;;;;8.40;1.67;;;;;;;22.19;48.94;99981.50;8412240;28;20045;-77
2022/07/08 15:42:02;;;;;;;6.30;1.70;;;;;;;21.73;49.38;99988.03;8368818;28;20093;-77
2022/07/08 15:46:07;;;;;;;6.60;1.70;;;;;;;21.36;50.64;99993.91;8340161;28;20048;-77
2022/07/08 15:50:12;;;;;;;4.95;1.35;;;;;;;21.19;51.23;99999.81;8393114;28;20064;-77
2022/07/08 15:54:17;;;;;;;8.57;1.73;;;;;;;21.04;52.46;99992.38;8319228;28;20048;-76
2022/07/08 15:58:22;;;;;;;6.28;1.55;;;;;;;21.14;52.84;99997.34;8280227;28;20053;-76
2022/07/08 16:02:23;;;;;;;8.40;1.55;;;;;;;21.18;51.86;99995.47;8328024;28;20053;-76
2022/07/08 16:06:25;;;;;;;6.28;1.60;;;;;;;21.21;51.64;100003.00;8349355;28;20083;-76
2022/07/08 16:10:27;;;;;;;6.50;1.63;;;;;;;21.34;50.99;99996.22;8353428;28;20075;-77
2022/07/08 16:14:30;;;;;;;7.70;1.52;;;;;;;21.65;50.30;99994.53;8314660;28;20056;-76
2022/07/08 16:18:33;;;;;;;7.82;1.60;;;;;;;21.94;48.95;100002.25;8352058;28;20590;-76
2022/07/08 16:22:36;;;;;;;3.92;1.33;;;;;;;21.97;49.18;99996.00;8350605;28;20261;-76
2022/07/08 16:26:37;;;;;;;5.38;1.63;;;;;;;21.92;49.27;100001.78;8351416;28;20044;-76
2022/07/08 16:30:39;;;;;;;7.85;1.88;;;;;;;21.66;50.68;100007.13;8381987;28;20052;-78
2022/07/08 16:34:41;;;;;;;6.90;1.80;;;;;;;21.37;50.63;100017.47;8362374;28;20059;-76
2022/07/08 16:38:43;;;;;;;11.10;2.30;;;;;;;21.15;51.55;100026.38;8362704;28;20045;-77
2022/07/08 16:42:44;;;;;;;6.63;1.98;;;;;;;21.01;50.61;100009.56;8379366;28;20041;-77
2022/07/08 16:46:45;;;;;;;9.85;1.65;;;;;;;20.92;51.56;100017.19;8340786;28;20072;-77
2022/07/08 16:50:46;;;;;;;8.68;1.90;;;;;;;20.85;51.82;100028.00;8361226;28;20048;-76
2022/07/08 16:54:49;;;;;;;7.65;1.88;;;;;;;20.71;53.05;100038.63;8345712;28;20037;-77
2022/07/08 16:58:50;;;;;;;8.30;1.85;;;;;;;20.70;52.50;100042.50;8334834;28;20417;-76
2022/07/08 17:02:52;;;;;;;11.18;1.52;;;;;;;20.47;52.64;100051.34;8374706;28;20729;-76
2022/07/08 17:06:54;;;;;;;6.80;1.48;;;;;;;20.50;53.18;100050.66;8397092;28;20047;-75
2022/07/08 17:10:57;;;;;;;8.65;1.77;;;;;;;20.59;52.63;100054.00;8359987;28;20049;-76
2022/07/08 17:14:58;;;;;;;6.97;1.80;;;;;;;20.41;53.95;100063.72;8400312;28;20044;-75
2022/07/08 17:18:59;;;;;;;8.13;1.88;;;;;;;20.23;53.94;100060.47;8381120;28;20046;-75
2022/07/08 17:23:01;;;;;;;10.05;1.73;;;;;;;20.18;54.27;100059.91;8366836;28;20516;-75
2022/07/08 17:27:03;;;;;;;5.95;1.48;;;;;;;20.04;54.75;100070.50;8414867;28;20037;-75
2022/07/08 17:31:04;;;;;;;7.88;1.65;;;;;;;19.83;54.87;100075.34;8387941;28;20049;-76
2022/07/08 17:35:05;;;;;;;10.82;1.75;;;;;;;19.69;55.43;100082.00;8418347;28;20097;-75
2022/07/08 17:39:10;;;;;;;10.32;2.30;;;;;;;19.62;55.91;100076.28;8419117;28;20400;-75
2022/07/08 17:43:15;;;;;;;10.70;1.77;;;;;;;19.58;55.93;100075.41;8373188;28;20057;-76
2022/07/08 17:47:16;;;;;;;7.57;1.65;;;;;;;19.55;55.91;100087.06;8420198;28;20156;-76
2022/07/08 17:51:22;;;;;;;8.23;1.67;;;;;;;19.36;56.10;100078.56;8386884;28;20426;-75
2022/07/08 17:55:25;;;;;;;14.95;1.67;;;;;;;19.30;56.33;100074.47;8386959;28;20582;-76
2022/07/08 17:59:26;;;;;;;11.23;2.30;;;;;;;19.22;56.47;100086.34;8423525;28;20048;-76
2022/07/08 18:03:27;;;;;;;8.40;1.80;;;;;;;19.16;56.87;100090.44;8421770;28;20043;-76
2022/07/08 18:07:29;;;;;;;8.90;2.00;;;;;;;19.07;57.17;100092.50;8340734;28;20087;-75
2022/07/08 18:11:30;;;;;;;10.35;1.77;;;;;;;18.96;57.27;100098.44;8348803;28;20741;-75
2022/07/08 18:15:31;;;;;;;5.88;1.77;;;;;;;18.87;57.52;100099.69;8349097;28;20103;-74
2022/07/08 18:19:33;;;;;;;15.05;1.98;;;;;;;18.84;57.56;100106.63;8353885;28;20574;-73
2022/07/08 18:23:35;;;;;;;8.07;1.80;;;;;;;18.78;58.20;100107.97;8348434;28;20045;-75
2022/07/08 18:27:36;;;;;;;11.43;2.03;;;;;;;18.71;58.07;100113.22;8343973;28;20501;-75
2022/07/08 18:31:37;;;;;;;7.55;1.70;;;;;;;18.67;58.46;100112.28;8348039;28;20045;-75
2022/07/08 18:35:38;;;;;;;8.38;1.90;;;;;;;18.62;58.31;100109.75;8339114;28;20176;-74
2022/07/08 18:39:39;;;;;;;9.20;1.60;;;;;;;18.58;58.51;100111.56;8420363;28;20051;-75
2022/07/08 18:43:40;;;;;;;13.07;1.90;;;;;;;18.56;59.06;100105.63;8413317;28;20051;-75
2022/07/08 18:47:42;;;;;;;12.75;1.77;;;;;;;18.48;58.44;100120.16;8417257;28;20048;-76
2022/07/08 18:51:43;;;;;;;6.38;2.15;;;;;;;18.40;59.29;100115.59;8413913;28;20574;-76
2022/07/08 18:55:45;;;;;;;6.53;1.55;;;;;;;18.31;59.20;100120.31;8419526;28;20401;-77
2022/07/08 18:59:46;;;;;;;8.10;1.83;;;;;;;18.22;59.20;100122.34;8415777;28;20855;-76